sensor_id;sensor_type;location;lat;lon;timestamp;temperature;humidity
69387;SHT31;56575;48.942;8.404;2023-06-19T00:01:42;23.57;54.26
69387;SHT31;56575;48.942;8.404;2023-06-19T00:04:09;23.56;54.26
69387;SHT31;56575;48.942;8.404;2023-06-19T00:06:34;23.50;54.29
69387;SHT31;56575;48.942;8.404;2023-06-19T00:09:00;23.39;54.71
69387;SHT31;56575;48.942;8.404;2023-06-19T00:11:25;23.35;54.89
69387;SHT31;56575;48.942;8.404;2023-06-19T00:13:52;23.35;55.08
69387;SHT31;56575;48.942;8.404;2023-06-19T00:16:17;23.30;55.47
69387;SHT31;56575;48.942;8.404;2023-06-19T00:18:44;23.19;55.90
69387;SHT31;56575;48.942;8.404;2023-06-19T00:21:09;23.14;55.94
69387;SHT31;56575;48.942;8.404;2023-06-19T00:23:35;23.14;55.78
69387;SHT31;56575;48.942;8.404;2023-06-19T00:26:01;23.14;56.03
69387;SHT31;56575;48.942;8.404;2023-06-19T00:28:30;23.15;56.14
69387;SHT31;56575;48.942;8.404;2023-06-19T00:30:55;23.14;56.36
69387;SHT31;56575;48.942;8.404;2023-06-19T00:33:21;23.15;56.62
69387;SHT31;56575;48.942;8.404;2023-06-19T00:35:47;23.18;56.74
69387;SHT31;56575;48.942;8.404;2023-06-19T00:38:12;23.25;56.75
69387;SHT31;56575;48.942;8.404;2023-06-19T00:40:37;23.29;56.86
69387;SHT31;56575;48.942;8.404;2023-06-19T00:43:05;23.28;57.51
69387;SHT31;56575;48.942;8.404;2023-06-19T00:45:30;23.32;57.52
69387;SHT31;56575;48.942;8.404;2023-06-19T00:47:57;23.30;57.48
69387;SHT31;56575;48.942;8.404;2023-06-19T00:50:24;23.26;57.80
69387;SHT31;56575;48.942;8.404;2023-06-19T00:52:50;23.20;58.29
69387;SHT31;56575;48.942;8.404;2023-06-19T00:55:15;23.15;58.94
69387;SHT31;56575;48.942;8.404;2023-06-19T00:57:42;23.08;59.74
69387;SHT31;56575;48.942;8.404;2023-06-19T01:00:08;22.92;60.83
69387;SHT31;56575;48.942;8.404;2023-06-19T01:02:35;22.74;62.17
69387;SHT31;56575;48.942;8.404;2023-06-19T01:05:01;22.63;62.92
69387;SHT31;56575;48.942;8.404;2023-06-19T01:10:02;22.43;64.25
69387;SHT31;56575;48.942;8.404;2023-06-19T01:12:39;22.26;65.37
69387;SHT31;56575;48.942;8.404;2023-06-19T01:15:07;22.09;68.97
69387;SHT31;56575;48.942;8.404;2023-06-19T01:17:35;21.60;72.48
69387;SHT31;56575;48.942;8.404;2023-06-19T01:20:01;21.35;78.59
69387;SHT31;56575;48.942;8.404;2023-06-19T01:22:32;21.05;79.68
69387;SHT31;56575;48.942;8.404;2023-06-19T01:24:58;20.73;81.64
69387;SHT31;56575;48.942;8.404;2023-06-19T01:27:25;20.64;81.43
69387;SHT31;56575;48.942;8.404;2023-06-19T01:29:51;20.48;79.49
69387;SHT31;56575;48.942;8.404;2023-06-19T01:34:57;20.37;80.06
69387;SHT31;56575;48.942;8.404;2023-06-19T01:37:25;20.25;81.77
69387;SHT31;56575;48.942;8.404;2023-06-19T01:39:56;20.25;83.20
69387;SHT31;56575;48.942;8.404;2023-06-19T01:42:22;20.18;83.51
69387;SHT31;56575;48.942;8.404;2023-06-19T01:44:49;20.18;81.08
69387;SHT31;56575;48.942;8.404;2023-06-19T01:47:14;20.23;84.09
69387;SHT31;56575;48.942;8.404;2023-06-19T01:49:45;20.18;82.87
69387;SHT31;56575;48.942;8.404;2023-06-19T01:52:11;20.18;82.12
69387;SHT31;56575;48.942;8.404;2023-06-19T01:54:36;20.20;82.76
69387;SHT31;56575;48.942;8.404;2023-06-19T01:57:01;20.25;81.48
69387;SHT31;56575;48.942;8.404;2023-06-19T01:59:27;20.25;81.71
69387;SHT31;56575;48.942;8.404;2023-06-19T02:01:53;20.29;82.61
69387;SHT31;56575;48.942;8.404;2023-06-19T02:04:18;20.25;80.95
69387;SHT31;56575;48.942;8.404;2023-06-19T02:06:43;20.26;80.74
69387;SHT31;56575;48.942;8.404;2023-06-19T02:09:09;20.25;83.23
69387;SHT31;56575;48.942;8.404;2023-06-19T02:11:34;20.26;81.25
69387;SHT31;56575;48.942;8.404;2023-06-19T02:13:59;20.32;81.62
69387;SHT31;56575;48.942;8.404;2023-06-19T02:16:25;20.30;80.81
69387;SHT31;56575;48.942;8.404;2023-06-19T02:18:50;20.43;82.88
69387;SHT31;56575;48.942;8.404;2023-06-19T02:21:16;20.48;82.70
69387;SHT31;56575;48.942;8.404;2023-06-19T02:23:41;20.53;80.68
69387;SHT31;56575;48.942;8.404;2023-06-19T02:26:07;20.58;81.96
69387;SHT31;56575;48.942;8.404;2023-06-19T02:28:32;20.58;79.06
69387;SHT31;56575;48.942;8.404;2023-06-19T02:30:57;20.67;79.17
69387;SHT31;56575;48.942;8.404;2023-06-19T02:33:23;20.74;79.68
69387;SHT31;56575;48.942;8.404;2023-06-19T02:35:48;20.77;78.46
69387;SHT31;56575;48.942;8.404;2023-06-19T02:38:13;20.78;78.40
69387;SHT31;56575;48.942;8.404;2023-06-19T02:40:40;20.87;76.70
69387;SHT31;56575;48.942;8.404;2023-06-19T02:43:05;20.91;77.49
69387;SHT31;56575;48.942;8.404;2023-06-19T02:45:30;20.90;76.36
69387;SHT31;56575;48.942;8.404;2023-06-19T02:47:56;20.96;74.30
69387;SHT31;56575;48.942;8.404;2023-06-19T02:50:21;21.01;73.58
69387;SHT31;56575;48.942;8.404;2023-06-19T02:52:47;21.06;71.66
69387;SHT31;56575;48.942;8.404;2023-06-19T02:55:12;21.12;71.58
69387;SHT31;56575;48.942;8.404;2023-06-19T02:57:38;21.19;70.44
69387;SHT31;56575;48.942;8.404;2023-06-19T03:00:04;21.22;69.25
69387;SHT31;56575;48.942;8.404;2023-06-19T03:02:34;21.23;69.01
69387;SHT31;56575;48.942;8.404;2023-06-19T03:04:59;21.26;68.72
69387;SHT31;56575;48.942;8.404;2023-06-19T03:07:25;21.26;69.46
69387;SHT31;56575;48.942;8.404;2023-06-19T03:09:53;21.23;69.93
69387;SHT31;56575;48.942;8.404;2023-06-19T03:12:19;21.23;69.86
69387;SHT31;56575;48.942;8.404;2023-06-19T03:14:44;21.20;70.33
69387;SHT31;56575;48.942;8.404;2023-06-19T03:17:09;21.18;69.64
69387;SHT31;56575;48.942;8.404;2023-06-19T03:19:35;21.22;69.34
69387;SHT31;56575;48.942;8.404;2023-06-19T03:22:00;21.25;68.08
69387;SHT31;56575;48.942;8.404;2023-06-19T03:24:26;21.28;68.52
69387;SHT31;56575;48.942;8.404;2023-06-19T03:26:51;21.28;68.42
69387;SHT31;56575;48.942;8.404;2023-06-19T03:29:16;21.29;68.36
69387;SHT31;56575;48.942;8.404;2023-06-19T03:31:42;21.29;68.73
69387;SHT31;56575;48.942;8.404;2023-06-19T03:34:07;21.28;68.56
69387;SHT31;56575;48.942;8.404;2023-06-19T03:36:33;21.28;68.76
69387;SHT31;56575;48.942;8.404;2023-06-19T03:38:58;21.29;68.66
69387;SHT31;56575;48.942;8.404;2023-06-19T03:41:23;21.29;68.41
69387;SHT31;56575;48.942;8.404;2023-06-19T03:43:49;21.28;69.08
69387;SHT31;56575;48.942;8.404;2023-06-19T03:46:14;21.25;68.97
69387;SHT31;56575;48.942;8.404;2023-06-19T03:48:39;21.23;69.43
69387;SHT31;56575;48.942;8.404;2023-06-19T03:51:05;21.25;69.42
69387;SHT31;56575;48.942;8.404;2023-06-19T03:53:30;21.26;69.55
69387;SHT31;56575;48.942;8.404;2023-06-19T03:55:55;21.18;70.03
69387;SHT31;56575;48.942;8.404;2023-06-19T03:58:21;21.22;70.50
69387;SHT31;56575;48.942;8.404;2023-06-19T04:00:46;21.22;70.77
69387;SHT31;56575;48.942;8.404;2023-06-19T04:03:11;21.20;70.74
69387;SHT31;56575;48.942;8.404;2023-06-19T04:05:37;21.19;70.99
69387;SHT31;56575;48.942;8.404;2023-06-19T04:08:04;21.16;71.02
69387;SHT31;56575;48.942;8.404;2023-06-19T04:10:29;21.15;71.31
69387;SHT31;56575;48.942;8.404;2023-06-19T04:12:55;21.01;72.23
69387;SHT31;56575;48.942;8.404;2023-06-19T04:15:21;20.96;72.51
69387;SHT31;56575;48.942;8.404;2023-06-19T04:17:46;20.90;72.76
69387;SHT31;56575;48.942;8.404;2023-06-19T04:20:12;20.81;73.37
69387;SHT31;56575;48.942;8.404;2023-06-19T04:22:40;20.81;73.60
69387;SHT31;56575;48.942;8.404;2023-06-19T04:25:07;20.71;73.93
69387;SHT31;56575;48.942;8.404;2023-06-19T04:27:33;20.68;74.26
69387;SHT31;56575;48.942;8.404;2023-06-19T04:29:59;20.63;74.46
69387;SHT31;56575;48.942;8.404;2023-06-19T04:32:24;20.67;74.34
69387;SHT31;56575;48.942;8.404;2023-06-19T04:34:49;20.71;74.35
69387;SHT31;56575;48.942;8.404;2023-06-19T04:37:15;20.73;74.09
69387;SHT31;56575;48.942;8.404;2023-06-19T04:39:47;20.74;74.12
69387;SHT31;56575;48.942;8.404;2023-06-19T04:42:18;20.82;73.91
69387;SHT31;56575;48.942;8.404;2023-06-19T04:44:46;20.85;73.47
69387;SHT31;56575;48.942;8.404;2023-06-19T04:47:12;20.91;73.42
69387;SHT31;56575;48.942;8.404;2023-06-19T04:49:37;21.05;73.14
69387;SHT31;56575;48.942;8.404;2023-06-19T04:52:03;21.13;72.97
69387;SHT31;56575;48.942;8.404;2023-06-19T04:54:28;21.23;73.02
69387;SHT31;56575;48.942;8.404;2023-06-19T04:56:54;21.32;72.90
69387;SHT31;56575;48.942;8.404;2023-06-19T04:59:19;21.33;72.97
69387;SHT31;56575;48.942;8.404;2023-06-19T05:01:44;21.42;72.86
69387;SHT31;56575;48.942;8.404;2023-06-19T05:04:10;21.40;72.39
69387;SHT31;56575;48.942;8.404;2023-06-19T05:06:38;21.42;72.51
69387;SHT31;56575;48.942;8.404;2023-06-19T05:09:04;21.42;72.73
69387;SHT31;56575;48.942;8.404;2023-06-19T05:11:30;21.40;72.38
69387;SHT31;56575;48.942;8.404;2023-06-19T05:13:55;21.37;72.54
69387;SHT31;56575;48.942;8.404;2023-06-19T05:16:20;21.37;72.74
69387;SHT31;56575;48.942;8.404;2023-06-19T05:18:48;21.37;72.76
69387;SHT31;56575;48.942;8.404;2023-06-19T05:21:14;21.42;72.78
69387;SHT31;56575;48.942;8.404;2023-06-19T05:23:42;21.49;72.53
69387;SHT31;56575;48.942;8.404;2023-06-19T05:26:08;21.46;72.86
69387;SHT31;56575;48.942;8.404;2023-06-19T05:28:33;21.56;72.54
69387;SHT31;56575;48.942;8.404;2023-06-19T05:30:59;21.58;72.42
69387;SHT31;56575;48.942;8.404;2023-06-19T05:33:24;21.64;72.25
69387;SHT31;56575;48.942;8.404;2023-06-19T05:35:50;21.65;72.66
69387;SHT31;56575;48.942;8.404;2023-06-19T05:38:19;21.73;72.58
69387;SHT31;56575;48.942;8.404;2023-06-19T05:40:45;21.81;72.47
69387;SHT31;56575;48.942;8.404;2023-06-19T05:43:11;21.80;72.29
69387;SHT31;56575;48.942;8.404;2023-06-19T05:45:37;21.81;72.53
69387;SHT31;56575;48.942;8.404;2023-06-19T05:48:03;21.84;72.54
69387;SHT31;56575;48.942;8.404;2023-06-19T05:50:28;21.94;72.60
69387;SHT31;56575;48.942;8.404;2023-06-19T05:52:54;21.95;72.46
69387;SHT31;56575;48.942;8.404;2023-06-19T05:55:19;21.95;72.77
69387;SHT31;56575;48.942;8.404;2023-06-19T05:57:44;21.97;72.71
69387;SHT31;56575;48.942;8.404;2023-06-19T06:00:10;21.92;73.05
69387;SHT31;56575;48.942;8.404;2023-06-19T06:02:39;21.98;73.13
69387;SHT31;56575;48.942;8.404;2023-06-19T06:05:05;21.98;73.44
69387;SHT31;56575;48.942;8.404;2023-06-19T06:07:31;22.02;73.32
69387;SHT31;56575;48.942;8.404;2023-06-19T06:09:57;22.11;73.46
69387;SHT31;56575;48.942;8.404;2023-06-19T06:12:22;22.16;72.99
69387;SHT31;56575;48.942;8.404;2023-06-19T06:14:47;22.28;72.88
69387;SHT31;56575;48.942;8.404;2023-06-19T06:17:13;22.28;72.62
69387;SHT31;56575;48.942;8.404;2023-06-19T06:19:38;22.30;72.46
69387;SHT31;56575;48.942;8.404;2023-06-19T06:22:04;22.40;72.08
69387;SHT31;56575;48.942;8.404;2023-06-19T06:24:29;22.47;71.80
69387;SHT31;56575;48.942;8.404;2023-06-19T06:26:55;22.54;71.39
69387;SHT31;56575;48.942;8.404;2023-06-19T06:29:20;22.64;70.93
69387;SHT31;56575;48.942;8.404;2023-06-19T06:31:46;22.67;70.31
69387;SHT31;56575;48.942;8.404;2023-06-19T06:34:12;22.77;70.08
69387;SHT31;56575;48.942;8.404;2023-06-19T06:36:38;22.84;69.78
69387;SHT31;56575;48.942;8.404;2023-06-19T06:39:03;22.94;68.54
69387;SHT31;56575;48.942;8.404;2023-06-19T06:41:29;23.04;68.92
69387;SHT31;56575;48.942;8.404;2023-06-19T06:43:54;23.16;68.71
69387;SHT31;56575;48.942;8.404;2023-06-19T06:46:20;23.22;67.63
69387;SHT31;56575;48.942;8.404;2023-06-19T06:48:46;23.32;67.68
69387;SHT31;56575;48.942;8.404;2023-06-19T06:51:11;23.41;66.03
69387;SHT31;56575;48.942;8.404;2023-06-19T06:53:37;23.49;64.94
69387;SHT31;56575;48.942;8.404;2023-06-19T06:56:02;23.59;65.02
69387;SHT31;56575;48.942;8.404;2023-06-19T06:58:28;23.74;64.82
69387;SHT31;56575;48.942;8.404;2023-06-19T07:00:53;23.85;63.80
69387;SHT31;56575;48.942;8.404;2023-06-19T07:03:19;24.00;63.72
69387;SHT31;56575;48.942;8.404;2023-06-19T07:05:44;24.07;63.01
69387;SHT31;56575;48.942;8.404;2023-06-19T07:08:10;24.08;62.40
69387;SHT31;56575;48.942;8.404;2023-06-19T07:10:35;24.19;61.78
69387;SHT31;56575;48.942;8.404;2023-06-19T07:13:01;24.33;61.30
69387;SHT31;56575;48.942;8.404;2023-06-19T07:15:26;24.51;60.94
69387;SHT31;56575;48.942;8.404;2023-06-19T07:17:52;24.40;60.62
69387;SHT31;56575;48.942;8.404;2023-06-19T07:20:17;24.48;61.01
69387;SHT31;56575;48.942;8.404;2023-06-19T07:22:43;24.49;60.70
69387;SHT31;56575;48.942;8.404;2023-06-19T07:25:11;24.29;60.71
69387;SHT31;56575;48.942;8.404;2023-06-19T07:27:37;24.35;60.43
69387;SHT31;56575;48.942;8.404;2023-06-19T07:30:03;24.25;60.95
69387;SHT31;56575;48.942;8.404;2023-06-19T07:32:29;24.21;61.06
69387;SHT31;56575;48.942;8.404;2023-06-19T07:34:54;24.25;61.47
69387;SHT31;56575;48.942;8.404;2023-06-19T07:37:20;24.14;61.36
69387;SHT31;56575;48.942;8.404;2023-06-19T07:39:49;24.17;61.89
69387;SHT31;56575;48.942;8.404;2023-06-19T07:42:15;24.39;61.50
69387;SHT31;56575;48.942;8.404;2023-06-19T07:44:41;24.59;60.99
69387;SHT31;56575;48.942;8.404;2023-06-19T07:47:07;24.57;60.77
69387;SHT31;56575;48.942;8.404;2023-06-19T07:49:33;24.53;60.99
69387;SHT31;56575;48.942;8.404;2023-06-19T07:51:58;24.57;61.17
69387;SHT31;56575;48.942;8.404;2023-06-19T07:54:23;24.63;61.08
69387;SHT31;56575;48.942;8.404;2023-06-19T07:56:49;24.64;61.03
69387;SHT31;56575;48.942;8.404;2023-06-19T07:59:14;24.69;61.11
69387;SHT31;56575;48.942;8.404;2023-06-19T08:01:39;24.86;60.82
69387;SHT31;56575;48.942;8.404;2023-06-19T08:04:06;24.94;60.88
69387;SHT31;56575;48.942;8.404;2023-06-19T08:06:31;24.81;60.98
69387;SHT31;56575;48.942;8.404;2023-06-19T08:08:56;24.86;61.29
69387;SHT31;56575;48.942;8.404;2023-06-19T08:11:22;24.95;61.57
69387;SHT31;56575;48.942;8.404;2023-06-19T08:13:48;24.90;61.72
69387;SHT31;56575;48.942;8.404;2023-06-19T08:16:13;24.88;61.75
69387;SHT31;56575;48.942;8.404;2023-06-19T08:18:39;24.94;61.69
69387;SHT31;56575;48.942;8.404;2023-06-19T08:21:04;25.10;61.44
69387;SHT31;56575;48.942;8.404;2023-06-19T08:23:29;25.15;61.14
69387;SHT31;56575;48.942;8.404;2023-06-19T08:25:55;25.28;61.07
69387;SHT31;56575;48.942;8.404;2023-06-19T08:28:20;25.35;60.81
69387;SHT31;56575;48.942;8.404;2023-06-19T08:30:45;25.07;62.08
69387;SHT31;56575;48.942;8.404;2023-06-19T08:33:13;25.32;61.66
69387;SHT31;56575;48.942;8.404;2023-06-19T08:35:38;25.39;61.63
69387;SHT31;56575;48.942;8.404;2023-06-19T08:38:04;25.28;61.41
69387;SHT31;56575;48.942;8.404;2023-06-19T08:40:29;25.28;61.78
69387;SHT31;56575;48.942;8.404;2023-06-19T08:42:55;25.15;61.95
69387;SHT31;56575;48.942;8.404;2023-06-19T08:45:21;25.45;61.01
69387;SHT31;56575;48.942;8.404;2023-06-19T08:47:48;25.87;60.51
69387;SHT31;56575;48.942;8.404;2023-06-19T08:50:14;26.04;59.15
69387;SHT31;56575;48.942;8.404;2023-06-19T08:52:39;26.22;59.28
69387;SHT31;56575;48.942;8.404;2023-06-19T08:55:05;26.52;58.83
69387;SHT31;56575;48.942;8.404;2023-06-19T08:57:41;26.78;58.16
69387;SHT31;56575;48.942;8.404;2023-06-19T09:00:07;27.17;57.26
69387;SHT31;56575;48.942;8.404;2023-06-19T09:02:44;27.18;56.78
69387;SHT31;56575;48.942;8.404;2023-06-19T09:05:15;26.89;57.58
69387;SHT31;56575;48.942;8.404;2023-06-19T09:07:41;26.98;57.63
69387;SHT31;56575;48.942;8.404;2023-06-19T09:10:17;26.31;59.49
69387;SHT31;56575;48.942;8.404;2023-06-19T09:12:44;26.41;59.10
69387;SHT31;56575;48.942;8.404;2023-06-19T09:15:14;26.60;58.26
69387;SHT31;56575;48.942;8.404;2023-06-19T09:17:40;26.78;57.51
69387;SHT31;56575;48.942;8.404;2023-06-19T09:20:06;26.79;57.68
69387;SHT31;56575;48.942;8.404;2023-06-19T09:22:32;26.86;57.04
69387;SHT31;56575;48.942;8.404;2023-06-19T09:25:01;26.75;57.33
69387;SHT31;56575;48.942;8.404;2023-06-19T09:27:32;26.39;57.64
69387;SHT31;56575;48.942;8.404;2023-06-19T09:29:57;26.93;57.05
69387;SHT31;56575;48.942;8.404;2023-06-19T09:32:25;27.43;55.24
69387;SHT31;56575;48.942;8.404;2023-06-19T09:34:53;28.03;52.93
69387;SHT31;56575;48.942;8.404;2023-06-19T09:37:29;27.80;52.84
69387;SHT31;56575;48.942;8.404;2023-06-19T09:39:57;28.38;52.03
69387;SHT31;56575;48.942;8.404;2023-06-19T09:42:33;28.83;51.23
69387;SHT31;56575;48.942;8.404;2023-06-19T09:45:04;28.44;52.91
69387;SHT31;56575;48.942;8.404;2023-06-19T09:47:42;28.18;53.91
69387;SHT31;56575;48.942;8.404;2023-06-19T09:50:11;28.31;53.73
69387;SHT31;56575;48.942;8.404;2023-06-19T09:52:38;27.90;53.45
69387;SHT31;56575;48.942;8.404;2023-06-19T09:55:05;27.72;55.41
69387;SHT31;56575;48.942;8.404;2023-06-19T09:57:34;27.58;56.03
69387;SHT31;56575;48.942;8.404;2023-06-19T10:00:02;27.94;54.29
69387;SHT31;56575;48.942;8.404;2023-06-19T10:02:46;28.48;53.01
69387;SHT31;56575;48.942;8.404;2023-06-19T10:05:11;28.58;53.13
69387;SHT31;56575;48.942;8.404;2023-06-19T10:07:37;28.40;52.63
69387;SHT31;56575;48.942;8.404;2023-06-19T10:10:06;28.15;53.68
69387;SHT31;56575;48.942;8.404;2023-06-19T10:15:18;28.82;53.72
69387;SHT31;56575;48.942;8.404;2023-06-19T10:17:48;28.53;52.45
69387;SHT31;56575;48.942;8.404;2023-06-19T10:20:30;28.59;52.02
69387;SHT31;56575;48.942;8.404;2023-06-19T10:22:58;28.90;52.09
69387;SHT31;56575;48.942;8.404;2023-06-19T10:25:28;28.92;50.91
69387;SHT31;56575;48.942;8.404;2023-06-19T10:27:54;29.86;51.28
69387;SHT31;56575;48.942;8.404;2023-06-19T10:30:20;30.40;47.97
69387;SHT31;56575;48.942;8.404;2023-06-19T10:32:46;31.00;47.42
69387;SHT31;56575;48.942;8.404;2023-06-19T10:35:12;30.67;47.10
69387;SHT31;56575;48.942;8.404;2023-06-19T10:37:38;30.57;47.34
69387;SHT31;56575;48.942;8.404;2023-06-19T10:40:04;31.26;47.90
69387;SHT31;56575;48.942;8.404;2023-06-19T10:42:36;32.03;46.65
69387;SHT31;56575;48.942;8.404;2023-06-19T10:45:06;31.81;46.13
69387;SHT31;56575;48.942;8.404;2023-06-19T10:47:33;31.00;46.67
69387;SHT31;56575;48.942;8.404;2023-06-19T10:49:58;29.96;49.21
69387;SHT31;56575;48.942;8.404;2023-06-19T10:52:24;31.23;47.30
69387;SHT31;56575;48.942;8.404;2023-06-19T10:54:53;31.52;45.77
69387;SHT31;56575;48.942;8.404;2023-06-19T10:57:29;31.47;46.97
69387;SHT31;56575;48.942;8.404;2023-06-19T10:59:55;31.48;45.95
69387;SHT31;56575;48.942;8.404;2023-06-19T11:02:21;31.34;47.16
69387;SHT31;56575;48.942;8.404;2023-06-19T11:04:47;31.54;45.96
69387;SHT31;56575;48.942;8.404;2023-06-19T11:07:12;31.23;46.87
69387;SHT31;56575;48.942;8.404;2023-06-19T11:09:38;30.92;46.76
69387;SHT31;56575;48.942;8.404;2023-06-19T11:12:03;31.35;45.71
69387;SHT31;56575;48.942;8.404;2023-06-19T11:14:31;31.20;45.49
69387;SHT31;56575;48.942;8.404;2023-06-19T11:16:57;30.89;46.62
69387;SHT31;56575;48.942;8.404;2023-06-19T11:19:30;30.61;47.23
69387;SHT31;56575;48.942;8.404;2023-06-19T11:21:57;30.67;46.24
69387;SHT31;56575;48.942;8.404;2023-06-19T11:24:22;30.93;45.78
69387;SHT31;56575;48.942;8.404;2023-06-19T11:26:50;31.00;45.69
69387;SHT31;56575;48.942;8.404;2023-06-19T11:29:16;31.20;45.40
69387;SHT31;56575;48.942;8.404;2023-06-19T11:31:42;31.58;45.12
69387;SHT31;56575;48.942;8.404;2023-06-19T11:34:07;31.82;44.80
69387;SHT31;56575;48.942;8.404;2023-06-19T11:36:37;31.86;44.39
69387;SHT31;56575;48.942;8.404;2023-06-19T11:39:10;31.67;44.64
69387;SHT31;56575;48.942;8.404;2023-06-19T11:41:36;31.34;45.09
69387;SHT31;56575;48.942;8.404;2023-06-19T11:44:04;31.48;45.11
69387;SHT31;56575;48.942;8.404;2023-06-19T11:46:32;31.85;43.83
69387;SHT31;56575;48.942;8.404;2023-06-19T11:49:14;31.68;44.37
69387;SHT31;56575;48.942;8.404;2023-06-19T11:51:40;31.54;44.73
69387;SHT31;56575;48.942;8.404;2023-06-19T11:54:07;31.75;44.10
69387;SHT31;56575;48.942;8.404;2023-06-19T11:56:37;32.98;43.00
69387;SHT31;56575;48.942;8.404;2023-06-19T11:59:02;33.98;43.08
69387;SHT31;56575;48.942;8.404;2023-06-19T12:01:29;34.92;39.31
69387;SHT31;56575;48.942;8.404;2023-06-19T12:03:55;35.15;39.36
69387;SHT31;56575;48.942;8.404;2023-06-19T12:06:21;35.54;39.24
69387;SHT31;56575;48.942;8.404;2023-06-19T12:08:46;35.28;39.14
69387;SHT31;56575;48.942;8.404;2023-06-19T12:11:12;35.72;40.13
69387;SHT31;56575;48.942;8.404;2023-06-19T12:13:40;36.12;37.89
69387;SHT31;56575;48.942;8.404;2023-06-19T12:16:05;36.00;39.08
69387;SHT31;56575;48.942;8.404;2023-06-19T12:18:30;35.16;37.72
69387;SHT31;56575;48.942;8.404;2023-06-19T12:20:56;35.28;38.54
69387;SHT31;56575;48.942;8.404;2023-06-19T12:23:21;34.88;38.71
69387;SHT31;56575;48.942;8.404;2023-06-19T12:25:48;34.53;39.68
69387;SHT31;56575;48.942;8.404;2023-06-19T12:28:13;33.39;41.57
69387;SHT31;56575;48.942;8.404;2023-06-19T12:30:43;32.54;41.76
69387;SHT31;56575;48.942;8.404;2023-06-19T12:33:09;32.86;41.98
69387;SHT31;56575;48.942;8.404;2023-06-19T12:35:35;32.51;42.57
69387;SHT31;56575;48.942;8.404;2023-06-19T12:38:00;32.48;42.08
69387;SHT31;56575;48.942;8.404;2023-06-19T12:40:26;32.68;42.50
69387;SHT31;56575;48.942;8.404;2023-06-19T12:42:51;32.98;42.27
69387;SHT31;56575;48.942;8.404;2023-06-19T12:45:17;32.37;42.57
69387;SHT31;56575;48.942;8.404;2023-06-19T12:47:42;31.71;44.93
69387;SHT31;56575;48.942;8.404;2023-06-19T12:50:08;30.90;47.00
69387;SHT31;56575;48.942;8.404;2023-06-19T12:52:33;31.17;47.47
69387;SHT31;56575;48.942;8.404;2023-06-19T12:54:58;31.30;46.26
69387;SHT31;56575;48.942;8.404;2023-06-19T12:57:26;31.34;46.24
69387;SHT31;56575;48.942;8.404;2023-06-19T12:59:52;31.16;46.31
69387;SHT31;56575;48.942;8.404;2023-06-19T13:02:17;31.26;46.30
69387;SHT31;56575;48.942;8.404;2023-06-19T13:04:43;31.55;45.69
69387;SHT31;56575;48.942;8.404;2023-06-19T13:07:08;31.33;45.12
69387;SHT31;56575;48.942;8.404;2023-06-19T13:09:33;31.33;44.96
69387;SHT31;56575;48.942;8.404;2023-06-19T13:12:01;31.78;44.78
69387;SHT31;56575;48.942;8.404;2023-06-19T13:14:26;32.34;43.26
69387;SHT31;56575;48.942;8.404;2023-06-19T13:16:52;32.56;42.17
69387;SHT31;56575;48.942;8.404;2023-06-19T13:19:17;32.91;42.53
69387;SHT31;56575;48.942;8.404;2023-06-19T13:21:43;32.75;42.62
69387;SHT31;56575;48.942;8.404;2023-06-19T13:24:08;32.76;44.11
69387;SHT31;56575;48.942;8.404;2023-06-19T13:26:34;32.60;43.16
69387;SHT31;56575;48.942;8.404;2023-06-19T13:28:59;32.20;42.45
69387;SHT31;56575;48.942;8.404;2023-06-19T13:31:26;31.97;44.20
69387;SHT31;56575;48.942;8.404;2023-06-19T13:33:51;31.71;42.30
69387;SHT31;56575;48.942;8.404;2023-06-19T13:36:17;31.41;43.07
69387;SHT31;56575;48.942;8.404;2023-06-19T13:38:44;31.14;43.91
69387;SHT31;56575;48.942;8.404;2023-06-19T13:41:10;31.29;46.39
69387;SHT31;56575;48.942;8.404;2023-06-19T13:43:35;31.17;43.88
69387;SHT31;56575;48.942;8.404;2023-06-19T13:46:01;30.85;42.82
69387;SHT31;56575;48.942;8.404;2023-06-19T13:48:29;31.13;43.11
69387;SHT31;56575;48.942;8.404;2023-06-19T13:50:54;31.13;43.32
69387;SHT31;56575;48.942;8.404;2023-06-19T13:53:19;31.55;44.30
69387;SHT31;56575;48.942;8.404;2023-06-19T13:55:46;31.44;41.79
69387;SHT31;56575;48.942;8.404;2023-06-19T13:58:12;31.57;43.17
69387;SHT31;56575;48.942;8.404;2023-06-19T14:00:38;31.67;42.09
69387;SHT31;56575;48.942;8.404;2023-06-19T14:03:03;31.04;40.19
69387;SHT31;56575;48.942;8.404;2023-06-19T14:05:31;31.09;41.64
69387;SHT31;56575;48.942;8.404;2023-06-19T14:07:58;31.35;42.11
69387;SHT31;56575;48.942;8.404;2023-06-19T14:10:23;31.50;42.07
69387;SHT31;56575;48.942;8.404;2023-06-19T14:12:49;31.68;41.34
69387;SHT31;56575;48.942;8.404;2023-06-19T14:15:14;31.55;40.32
69387;SHT31;56575;48.942;8.404;2023-06-19T14:17:39;31.51;40.91
69387;SHT31;56575;48.942;8.404;2023-06-19T14:20:07;31.31;41.14
69387;SHT31;56575;48.942;8.404;2023-06-19T14:22:34;30.78;42.52
69387;SHT31;56575;48.942;8.404;2023-06-19T14:25:00;30.69;42.61
69387;SHT31;56575;48.942;8.404;2023-06-19T14:27:27;31.16;44.94
69387;SHT31;56575;48.942;8.404;2023-06-19T14:30:07;31.57;41.20
69387;SHT31;56575;48.942;8.404;2023-06-19T14:32:34;31.76;41.17
69387;SHT31;56575;48.942;8.404;2023-06-19T14:35:01;32.06;42.77
69387;SHT31;56575;48.942;8.404;2023-06-19T14:37:26;32.20;41.26
69387;SHT31;56575;48.942;8.404;2023-06-19T14:39:52;32.51;42.00
69387;SHT31;56575;48.942;8.404;2023-06-19T14:42:17;32.36;42.19
69387;SHT31;56575;48.942;8.404;2023-06-19T14:44:43;32.39;40.80
69387;SHT31;56575;48.942;8.404;2023-06-19T14:47:08;32.37;40.74
69387;SHT31;56575;48.942;8.404;2023-06-19T14:49:33;32.74;41.80
69387;SHT31;56575;48.942;8.404;2023-06-19T14:51:59;32.82;43.21
69387;SHT31;56575;48.942;8.404;2023-06-19T14:54:24;32.60;42.68
69387;SHT31;56575;48.942;8.404;2023-06-19T14:56:50;32.39;40.86
69387;SHT31;56575;48.942;8.404;2023-06-19T14:59:17;32.14;41.99
69387;SHT31;56575;48.942;8.404;2023-06-19T15:01:44;31.96;43.76
69387;SHT31;56575;48.942;8.404;2023-06-19T15:04:09;31.96;44.09
69387;SHT31;56575;48.942;8.404;2023-06-19T15:06:34;31.26;42.96
69387;SHT31;56575;48.942;8.404;2023-06-19T15:09:00;31.23;43.09
69387;SHT31;56575;48.942;8.404;2023-06-19T15:11:25;31.13;43.41
69387;SHT31;56575;48.942;8.404;2023-06-19T15:13:51;31.00;44.48
69387;SHT31;56575;48.942;8.404;2023-06-19T15:16:16;30.92;45.21
69387;SHT31;56575;48.942;8.404;2023-06-19T15:18:43;30.80;44.66
69387;SHT31;56575;48.942;8.404;2023-06-19T15:21:08;30.62;44.49
69387;SHT31;56575;48.942;8.404;2023-06-19T15:23:34;30.54;45.68
69387;SHT31;56575;48.942;8.404;2023-06-19T15:25:59;30.49;45.22
69387;SHT31;56575;48.942;8.404;2023-06-19T15:28:24;30.47;45.57
69387;SHT31;56575;48.942;8.404;2023-06-19T15:30:50;30.57;45.45
69387;SHT31;56575;48.942;8.404;2023-06-19T15:33:16;30.68;45.39